createdAt,value
2018-04-28T00:00:44.758Z,72.99
2018-04-28T00:01:44.715Z,73.08
2018-04-28T00:02:44.672Z,72.51
2018-04-28T00:03:44.628Z,72.23
2018-04-28T00:04:44.591Z,72.71
2018-04-28T00:05:44.544Z,71.94
2018-04-28T00:06:44.505Z,71.75
2018-04-28T00:07:44.459Z,71.41
2018-04-28T00:08:44.416Z,69.11
2018-04-28T00:09:44.373Z,68.54
2018-04-28T00:10:44.330Z,69.59
2018-04-28T00:11:44.286Z,69.97
2018-04-28T00:12:44.246Z,69.68
2018-04-28T00:13:44.210Z,69.68
2018-04-28T00:14:44.162Z,70.16
2018-04-28T00:15:44.117Z,69.87
2018-04-28T00:16:44.074Z,70.26
2018-04-28T00:17:44.033Z,70.36
2018-04-28T00:18:43.990Z,70.16
2018-04-28T00:19:43.947Z,71.02
2018-04-28T00:20:43.923Z,69.97
2018-04-28T00:21:43.860Z,70.45
2018-04-28T00:22:43.819Z,69.40
2018-04-28T00:23:43.778Z,69.02
2018-04-28T00:24:43.733Z,68.82
2018-04-28T00:25:43.690Z,68.26
2018-04-28T00:26:43.659Z,67.30
2018-04-28T00:27:43.608Z,67.01
2018-04-28T00:28:43.566Z,67.49
2018-04-28T00:29:43.521Z,67.30
2018-04-28T00:30:43.480Z,67.49
2018-04-28T00:31:43.435Z,68.35
2018-04-28T00:32:43.392Z,68.44
2018-04-28T00:33:43.355Z,67.97
2018-04-28T00:34:43.311Z,68.26
2018-04-28T00:35:43.271Z,68.67
2018-04-28T00:36:43.224Z,69.11
2018-04-28T00:37:43.185Z,68.38
2018-04-28T00:38:43.141Z,68.06
2018-04-28T00:39:43.095Z,67.91
2018-04-28T00:40:43.058Z,68.26
2018-04-28T00:41:43.010Z,68.29
2018-04-28T00:42:42.969Z,68.48
2018-04-28T00:43:42.933Z,68.57
2018-04-28T00:44:42.887Z,68.86
2018-04-28T00:45:42.841Z,69.31
2018-04-28T00:46:42.800Z,68.67
2018-04-28T00:47:42.757Z,69.24
2018-04-28T00:48:42.714Z,69.31
2018-04-28T00:49:42.675Z,70.39
2018-04-28T00:50:42.630Z,70.36
2018-04-28T00:51:42.586Z,69.91
2018-04-28T00:52:42.545Z,69.40
2018-04-28T00:53:42.506Z,70.07
2018-04-28T00:54:42.461Z,69.87
2018-04-28T00:55:42.420Z,70.07
2018-04-28T00:56:42.375Z,70.07
2018-04-28T00:57:42.334Z,70.73
2018-04-28T00:58:42.294Z,71.06
2018-04-28T00:59:42.249Z,71.31
2018-04-28T01:00:42.208Z,71.88
2018-04-28T01:01:42.166Z,71.44
2018-04-28T01:02:42.124Z,71.12
2018-04-28T01:03:42.077Z,71.50
2018-04-28T01:04:42.035Z,71.15
2018-04-28T01:05:41.993Z,71.31
2018-04-28T01:06:41.954Z,71.12
2018-04-28T01:07:41.908Z,70.77
2018-04-28T01:08:41.864Z,69.49
2018-04-28T01:09:41.829Z,69.49
2018-04-28T01:10:41.780Z,70.10
2018-04-28T01:11:41.740Z,70.87
2018-04-28T01:12:41.703Z,71.02
2018-04-28T01:13:41.653Z,71.53
2018-04-28T01:14:41.613Z,71.82
2018-04-28T01:15:41.570Z,72.01
2018-04-28T01:16:41.527Z,71.82
2018-04-28T01:17:41.484Z,71.92
2018-04-28T01:18:41.445Z,72.20
2018-04-28T01:19:41.399Z,72.36
2018-04-28T01:20:41.361Z,72.55
2018-04-28T01:21:41.314Z,72.11
2018-04-28T01:22:41.270Z,72.45
2018-04-28T01:23:41.231Z,72.45
2018-04-28T01:24:41.189Z,72.45
2018-04-28T01:25:41.151Z,72.36
2018-04-28T01:26:41.101Z,72.45
2018-04-28T01:27:41.059Z,72.97
2018-04-28T01:28:41.017Z,72.64
2018-04-28T01:29:40.978Z,72.93
2018-04-28T01:30:40.936Z,72.83
2018-04-28T01:31:40.892Z,72.55
2018-04-28T01:32:40.847Z,72.93
2018-04-28T01:33:40.805Z,72.93
2018-04-28T01:34:40.763Z,73.12
2018-04-28T01:35:40.719Z,73.50
2018-04-28T01:36:40.678Z,72.45
2018-04-28T01:37:40.647Z,72.45
2018-04-28T01:38:40.598Z,72.93
2018-04-28T01:39:40.549Z,74.08
2018-04-28T01:40:40.505Z,74.17
2018-04-28T01:41:40.465Z,74.74
2018-04-28T01:42:40.428Z,74.74
2018-04-28T01:43:40.378Z,73.98
2018-04-28T01:44:40.339Z,73.41
2018-04-28T01:45:40.299Z,74.08
2018-04-28T01:46:40.256Z,74.74
2018-04-28T01:47:40.208Z,74.93
2018-04-28T01:48:40.167Z,74.93
2018-04-28T01:49:40.124Z,75.03
2018-04-28T01:50:40.083Z,74.84
2018-04-28T01:51:40.038Z,74.84
2018-04-28T01:52:39.998Z,75.03
2018-04-28T01:53:39.962Z,75.60
2018-04-28T01:54:39.910Z,75.22
2018-04-28T01:55:39.868Z,75.32
2018-04-28T01:56:39.827Z,75.79
2018-04-28T01:57:39.782Z,75.79
2018-04-28T01:58:39.745Z,75.51
2018-04-28T01:59:39.699Z,75.28
2018-04-28T02:00:39.656Z,75.13
2018-04-28T02:01:39.613Z,74.99
2018-04-28T02:02:39.576Z,76.08
2018-04-28T02:03:39.527Z,76.04
2018-04-28T02:04:39.487Z,75.57
2018-04-28T02:05:39.442Z,75.95
2018-04-28T02:06:39.400Z,76.27
2018-04-28T02:07:39.356Z,76.42
2018-04-28T02:08:39.318Z,75.95
2018-04-28T02:09:39.273Z,75.95
2018-04-28T02:10:39.229Z,76.14
2018-04-28T02:11:39.184Z,76.14
2018-04-28T02:12:39.146Z,76.71
2018-04-28T02:13:39.101Z,75.95
2018-04-28T02:14:39.061Z,75.95
2018-04-28T02:15:39.013Z,75.85
2018-04-28T02:16:38.970Z,75.95
2018-04-28T02:17:38.932Z,76.42
2018-04-28T02:18:38.886Z,76.42
2018-04-28T02:19:38.845Z,76.52
2018-04-28T02:20:38.803Z,76.52
2018-04-28T02:21:38.760Z,76.62
2018-04-28T02:22:38.717Z,76.62
2018-04-28T02:23:38.673Z,76.42
2018-04-28T02:24:38.630Z,76.71
2018-04-28T02:25:38.586Z,76.81
2018-04-28T02:26:38.551Z,77.38
2018-04-28T02:27:38.500Z,77.09
2018-04-28T02:28:38.459Z,77.19
2018-04-28T02:29:38.417Z,76.62
2018-04-28T02:30:38.373Z,76.52
2018-04-28T02:31:38.334Z,76.71
2018-04-28T02:32:38.287Z,77.28
2018-04-28T02:33:38.244Z,76.90
2018-04-28T02:34:38.203Z,76.71
2018-04-28T02:35:38.163Z,77.28
2018-04-28T02:36:38.115Z,77.28
2018-04-28T02:37:38.074Z,76.81
2018-04-28T02:38:38.032Z,76.23
2018-04-28T02:39:37.990Z,76.04
2018-04-28T02:40:37.945Z,75.85
2018-04-28T02:41:37.901Z,75.18
2018-04-28T02:42:37.858Z,76.04
2018-04-28T02:43:37.815Z,75.09
2018-04-28T02:44:37.772Z,74.61
2018-04-28T02:45:37.733Z,74.80
2018-04-28T02:46:37.688Z,74.23
2018-04-28T02:47:37.645Z,74.04
2018-04-28T02:48:37.607Z,74.71
2018-04-28T02:49:37.560Z,74.90
2018-04-28T02:50:37.518Z,75.57
2018-04-28T02:51:37.473Z,75.57
2018-04-28T02:52:37.430Z,75.18
2018-04-28T02:53:37.392Z,75.28
2018-04-28T02:54:37.345Z,75.18
2018-04-28T02:55:37.299Z,75.28
2018-04-28T02:56:37.261Z,75.28
2018-04-28T02:57:37.217Z,75.47
2018-04-28T02:58:37.174Z,74.80
2018-04-28T02:59:37.127Z,74.99
2018-04-28T03:00:37.090Z,75.37
2018-04-28T03:01:37.046Z,75.37
2018-04-28T03:02:37.003Z,75.18
2018-04-28T03:03:36.959Z,75.37
2018-04-28T03:04:36.914Z,75.66
2018-04-28T03:05:36.872Z,75.85
2018-04-28T03:06:36.828Z,76.14
2018-04-28T03:07:36.786Z,76.14
2018-04-28T03:08:36.743Z,75.95
2018-04-28T03:09:36.700Z,75.85
2018-04-28T03:10:36.657Z,75.85
2018-04-28T03:11:36.614Z,75.81
2018-04-28T03:12:36.571Z,75.18
2018-04-28T03:13:36.532Z,75.05
2018-04-28T03:14:36.491Z,75.15
2018-04-28T03:15:36.446Z,74.48
2018-04-28T03:16:36.399Z,74.19
2018-04-28T03:17:36.358Z,74.19
2018-04-28T03:18:36.314Z,73.91
2018-04-28T03:19:36.269Z,72.96
2018-04-28T03:20:36.226Z,72.80
2018-04-28T03:21:36.184Z,73.18
2018-04-28T03:22:36.146Z,72.89
2018-04-28T03:23:36.098Z,72.28
2018-04-28T03:24:36.056Z,72.32
2018-04-28T03:25:36.016Z,72.42
2018-04-28T03:26:35.970Z,72.42
2018-04-28T03:27:35.926Z,71.94
2018-04-28T03:28:35.885Z,71.46
2018-04-28T03:29:35.840Z,71.56
2018-04-28T03:30:35.801Z,71.37
2018-04-28T03:31:35.756Z,71.94
2018-04-28T03:32:35.711Z,72.03
2018-04-28T03:33:35.672Z,71.08
2018-04-28T03:34:35.630Z,70.79
2018-04-28T03:35:35.583Z,70.98
2018-04-28T03:36:35.540Z,71.08
2018-04-28T03:37:35.498Z,70.89
2018-04-28T03:38:35.462Z,70.03
2018-04-28T03:39:35.411Z,69.93
2018-04-28T03:40:35.371Z,70.32
2018-04-28T03:41:35.331Z,70.13
2018-04-28T03:42:35.286Z,69.78
2018-04-28T03:43:35.240Z,69.46
2018-04-28T03:44:35.196Z,69.49
2018-04-28T03:45:35.158Z,69.49
2018-04-28T03:46:35.113Z,69.49
2018-04-28T03:47:35.069Z,69.97
2018-04-28T03:48:35.024Z,69.59
2018-04-28T03:49:34.983Z,69.21
2018-04-28T03:50:34.942Z,69.21
2018-04-28T03:51:34.897Z,68.54
2018-04-28T03:52:34.854Z,68.82
2018-04-28T03:53:34.887Z,68.92
2018-04-28T03:54:34.771Z,68.73
2018-04-28T03:55:34.727Z,68.73
2018-04-28T03:56:34.684Z,68.92
2018-04-28T03:57:34.643Z,69.40
2018-04-28T03:58:34.597Z,69.59
2018-04-28T03:59:34.559Z,69.87
2018-04-28T04:00:34.514Z,69.68
2018-04-28T04:01:34.470Z,69.40
2018-04-28T04:02:34.437Z,70.39
2018-04-28T04:03:34.385Z,70.07
2018-04-28T04:04:34.340Z,69.97
2018-04-28T04:05:34.300Z,69.91
2018-04-28T04:06:34.256Z,69.59
2018-04-28T04:07:34.216Z,69.91
2018-04-28T04:08:34.175Z,69.91
2018-04-28T04:09:34.131Z,70.01
2018-04-28T04:10:34.087Z,70.10
2018-04-28T04:11:34.051Z,69.49
2018-04-28T04:12:34.009Z,69.43
2018-04-28T04:13:33.959Z,69.53
2018-04-28T04:14:33.915Z,68.86
2018-04-28T04:15:33.876Z,68.96
2018-04-28T04:16:33.830Z,68.29
2018-04-28T04:17:33.787Z,68.19
2018-04-28T04:18:33.746Z,68.96
2018-04-28T04:19:33.705Z,68.00
2018-04-28T04:20:33.660Z,68.10
2018-04-28T04:21:33.620Z,68.48
2018-04-28T04:22:33.644Z,68.96
2018-04-28T04:23:33.541Z,69.43
2018-04-28T04:24:33.491Z,69.82
2018-04-28T04:25:33.447Z,69.53
2018-04-28T04:26:33.450Z,69.53
2018-04-28T04:27:33.361Z,69.43
2018-04-28T04:28:33.317Z,69.05
2018-04-28T04:29:33.276Z,68.67
2018-04-28T04:30:33.237Z,68.67
2018-04-28T04:31:33.190Z,68.96
2018-04-28T04:32:33.153Z,69.53
2018-04-28T04:33:33.106Z,68.76
2018-04-28T04:34:33.065Z,68.48
2018-04-28T04:35:33.021Z,69.15
2018-04-28T04:36:32.980Z,69.91
2018-04-28T04:37:32.938Z,70.29
2018-04-28T04:38:32.894Z,68.67
2018-04-28T04:39:32.852Z,68.48
2018-04-28T04:40:32.810Z,68.86
2018-04-28T04:41:32.791Z,69.24
2018-04-28T04:42:32.728Z,68.86
2018-04-28T04:43:32.684Z,68.00
2018-04-28T04:44:32.640Z,67.62
2018-04-28T04:45:32.600Z,68.00
2018-04-28T04:46:32.557Z,67.71
2018-04-28T04:47:32.511Z,67.52
2018-04-28T04:48:32.469Z,67.52
2018-04-28T04:49:32.426Z,67.62
2018-04-28T04:50:32.388Z,66.47
2018-04-28T04:51:32.346Z,66.38
2018-04-28T04:52:32.299Z,66.47
2018-04-28T04:53:32.258Z,66.47
2018-04-28T04:54:32.214Z,67.24
2018-04-28T04:55:32.173Z,66.95
2018-04-28T04:56:32.130Z,66.38
2018-04-28T04:57:32.085Z,66.76
2018-04-28T04:58:32.044Z,66.85
2018-04-28T04:59:32.005Z,66.89
2018-04-28T05:00:31.957Z,67.05
2018-04-28T05:01:31.924Z,67.71
2018-04-28T05:02:31.876Z,67.91
2018-04-28T05:03:31.833Z,67.81
2018-04-28T05:04:31.792Z,67.94
2018-04-28T05:05:31.748Z,67.36
2018-04-28T05:06:31.711Z,66.56
2018-04-28T05:07:31.661Z,66.66
2018-04-28T05:08:31.702Z,66.99
2018-04-28T05:09:31.583Z,67.18
2018-04-28T05:10:31.537Z,66.89
2018-04-28T05:11:31.494Z,66.60
2018-04-28T05:12:31.451Z,66.22
2018-04-28T05:13:31.413Z,65.84
2018-04-28T05:14:31.371Z,66.79
2018-04-28T05:15:31.322Z,66.99
2018-04-28T05:16:31.283Z,66.79
2018-04-28T05:17:31.241Z,66.79
2018-04-28T05:18:31.196Z,66.99
2018-04-28T05:19:31.155Z,66.13
2018-04-28T05:20:31.112Z,65.93
2018-04-28T05:21:31.071Z,65.84
2018-04-28T05:22:31.030Z,65.45
2018-04-28T05:23:30.988Z,65.55
2018-04-28T05:24:30.943Z,65.93
2018-04-28T05:25:30.900Z,65.45
2018-04-28T05:26:30.860Z,65.45
2018-04-28T05:27:30.820Z,66.83
2018-04-28T05:28:30.775Z,66.54
2018-04-28T05:29:30.734Z,66.41
2018-04-28T05:30:30.692Z,65.48
2018-04-28T05:31:30.648Z,66.06
2018-04-28T05:32:30.605Z,65.48
2018-04-28T05:33:30.562Z,65.87
2018-04-28T05:34:30.523Z,65.48
2018-04-28T05:35:30.480Z,65.87
2018-04-28T05:36:30.442Z,65.20
2018-04-28T05:37:30.401Z,65.97
2018-04-28T05:38:30.370Z,66.06
2018-04-28T05:39:30.308Z,64.91
2018-04-28T05:40:30.273Z,64.82
2018-04-28T05:41:30.225Z,65.01
2018-04-28T05:42:30.183Z,65.20
2018-04-28T05:43:30.150Z,64.91
2018-04-28T05:44:30.099Z,65.11
2018-04-28T05:45:30.057Z,65.23
2018-04-28T05:46:30.016Z,65.23
2018-04-28T05:47:29.974Z,64.66
2018-04-28T05:48:29.934Z,63.80
2018-04-28T05:49:29.889Z,62.74
2018-04-28T05:50:29.848Z,62.94
2018-04-28T05:51:29.807Z,63.13
2018-04-28T05:52:29.767Z,63.51
2018-04-28T05:53:29.725Z,63.03
2018-04-28T05:54:29.682Z,62.37
2018-04-28T05:55:29.637Z,62.17
2018-04-28T05:56:29.595Z,62.37
2018-04-28T05:57:29.554Z,61.98
2018-04-28T05:58:29.514Z,63.32
2018-04-28T05:59:29.471Z,62.94
2018-04-28T06:00:29.428Z,61.88
2018-04-28T06:01:29.388Z,61.69
2018-04-28T06:02:29.349Z,63.26
2018-04-28T06:03:29.305Z,63.16
2018-04-28T06:04:29.265Z,62.20
2018-04-28T06:05:29.223Z,62.97
2018-04-28T06:06:29.178Z,62.30
2018-04-28T06:07:29.136Z,62.49
2018-04-28T06:08:29.099Z,61.82
2018-04-28T06:10:29.024Z,61.63
2018-04-28T06:11:28.970Z,60.29
2018-04-28T06:12:28.933Z,59.52
2018-04-28T06:13:28.886Z,60.67
2018-04-28T06:14:28.851Z,60.10
2018-04-28T06:15:28.802Z,59.81
2018-04-28T06:16:28.762Z,59.27
2018-04-28T06:17:28.726Z,60.00
2018-04-28T06:18:28.682Z,59.84
2018-04-28T06:19:28.635Z,60.41
2018-04-28T06:20:28.595Z,60.41
2018-04-28T06:21:28.554Z,60.61
2018-04-28T06:22:28.515Z,60.51
2018-04-28T06:23:28.470Z,60.61
2018-04-28T06:24:28.435Z,60.80
2018-04-28T06:25:28.389Z,60.51
2018-04-28T06:26:28.348Z,61.37
2018-04-28T06:27:28.316Z,61.37
2018-04-28T06:28:28.277Z,61.37
2018-04-28T06:29:28.223Z,60.70
2018-04-28T06:30:28.183Z,60.22
2018-04-28T06:31:28.140Z,59.55
2018-04-28T06:32:28.097Z,59.17
2018-04-28T06:33:28.055Z,59.36
2018-04-28T06:34:28.016Z,60.13
2018-04-28T06:35:27.974Z,59.75
2018-04-28T06:36:27.931Z,59.84
2018-04-28T06:37:27.891Z,59.27
2018-04-28T06:38:27.848Z,59.75
2018-04-28T06:39:27.811Z,59.36
2018-04-28T06:40:27.841Z,59.17
2018-04-28T06:41:27.726Z,60.51
2018-04-28T06:42:27.684Z,60.70
2018-04-28T06:43:27.642Z,60.51
2018-04-28T06:44:27.606Z,59.65
2018-04-28T06:45:27.573Z,59.36
2018-04-28T06:46:27.517Z,59.08
2018-04-28T06:47:27.477Z,59.55
2018-04-28T06:48:27.437Z,60.22
2018-04-28T06:49:27.395Z,61.37
2018-04-28T06:50:27.351Z,61.47
2018-04-28T06:51:27.355Z,59.84
2018-04-28T06:52:27.269Z,59.65
2018-04-28T06:53:27.227Z,59.87
2018-04-28T06:54:27.188Z,58.81
2018-04-28T06:55:27.145Z,59.11
2018-04-28T06:56:27.105Z,60.16
2018-04-28T06:57:27.065Z,59.45
2018-04-28T06:58:27.024Z,58.81
2018-04-28T06:59:26.981Z,59.11
2018-04-28T07:00:26.938Z,59.87
2018-04-28T07:01:26.898Z,59.87
2018-04-28T07:02:26.862Z,59.30
2018-04-28T07:03:26.816Z,60.06
2018-04-28T07:04:26.775Z,59.20
2018-04-28T07:05:26.733Z,58.05
2018-04-28T07:06:26.695Z,58.81
2018-04-28T07:07:26.660Z,58.53
2018-04-28T07:08:26.615Z,59.11
2018-04-28T07:09:26.567Z,58.91
2018-04-28T07:10:26.529Z,57.57
2018-04-28T07:11:26.487Z,57.28
2018-04-28T07:12:26.447Z,57.67
2018-04-28T07:13:26.403Z,58.34
2018-04-28T07:14:26.366Z,58.37
2018-04-28T07:15:26.322Z,58.27
2018-04-28T07:16:26.280Z,58.27
2018-04-28T07:17:26.240Z,57.50
2018-04-28T07:18:26.199Z,56.83
2018-04-28T07:19:26.158Z,57.21
2018-04-28T07:20:26.119Z,58.94
2018-04-28T07:21:26.086Z,58.56
2018-04-28T07:22:26.037Z,58.94
2018-04-28T07:23:25.994Z,58.56
2018-04-28T07:24:25.955Z,58.56
2018-04-28T07:25:25.912Z,58.94
2018-04-28T07:26:25.873Z,58.84
2018-04-28T07:27:25.831Z,58.56
2018-04-28T07:28:25.790Z,57.60
2018-04-28T07:29:25.748Z,57.12
2018-04-28T07:30:25.708Z,57.41
2018-04-28T07:31:25.665Z,56.86
2018-04-28T07:32:25.626Z,58.49
2018-04-28T07:33:25.584Z,57.34
2018-04-28T07:34:25.547Z,56.96
2018-04-28T07:35:25.504Z,57.24
2018-04-28T07:36:25.462Z,57.43
2018-04-28T07:37:25.421Z,56.76
2018-04-28T07:38:25.384Z,55.80
2018-04-28T07:39:25.342Z,57.53
2018-04-28T07:40:25.303Z,56.79
2018-04-28T07:41:25.264Z,54.83
2018-04-28T07:42:25.310Z,52.17
2018-04-28T07:43:25.178Z,50.85
2018-04-28T07:44:25.143Z,50.27
2018-04-28T07:45:25.099Z,49.91
2018-04-28T07:46:25.060Z,48.95
2018-04-28T07:47:25.017Z,49.07
2018-04-28T07:48:24.978Z,47.72
2018-04-28T07:49:24.938Z,47.36
2018-04-28T07:50:24.899Z,46.91
2018-04-28T07:51:24.858Z,45.83
2018-04-28T07:52:24.821Z,45.92
2018-04-28T07:53:24.782Z,47.39
2018-04-28T07:54:24.742Z,46.71
2018-04-28T07:55:24.705Z,46.14
2018-04-28T07:56:24.661Z,46.11
2018-04-28T07:57:24.626Z,46.50
2018-04-28T07:58:24.591Z,47.08
2018-04-28T07:59:24.546Z,47.85
2018-04-28T08:00:24.513Z,48.13
2018-04-28T08:01:24.468Z,49.10
2018-04-28T08:02:24.433Z,49.17
2018-04-28T08:03:24.391Z,49.55
2018-04-28T08:04:24.352Z,48.79
2018-04-28T08:05:24.315Z,48.30
2018-04-28T08:06:24.278Z,48.49
2018-04-28T08:07:24.236Z,47.36
2018-04-28T08:08:24.198Z,47.46
2018-04-28T08:09:24.164Z,47.46
2018-04-28T08:10:24.118Z,47.36
2018-04-28T08:11:24.082Z,48.21
2018-04-28T08:12:24.042Z,47.82
2018-04-28T08:13:24.004Z,48.11
2018-04-28T08:14:23.964Z,49.17
2018-04-28T08:15:23.926Z,49.74
2018-04-28T08:16:23.891Z,50.51
2018-04-28T08:17:23.846Z,49.36
2018-04-28T08:18:23.807Z,49.07
2018-04-28T08:19:23.766Z,49.72
2018-04-28T08:20:23.733Z,49.24
2018-04-28T08:21:23.691Z,49.15
2018-04-28T08:22:23.650Z,49.41
2018-04-28T08:23:23.611Z,49.89
2018-04-28T08:24:23.573Z,49.79
2018-04-28T08:25:23.535Z,50.18
2018-04-28T08:26:23.497Z,50.85
2018-04-28T08:27:23.459Z,51.14
2018-04-28T08:28:23.422Z,50.95
2018-04-28T08:29:23.378Z,50.34
2018-04-28T08:30:23.340Z,50.63
2018-04-28T08:31:23.299Z,50.73
2018-04-28T08:32:23.266Z,50.92
2018-04-28T08:33:23.221Z,50.82
2018-04-28T08:34:23.180Z,50.92
2018-04-28T08:35:23.146Z,50.92
2018-04-28T08:36:23.102Z,51.11
2018-04-28T08:37:23.184Z,51.88
2018-04-28T08:38:23.039Z,51.31
2018-04-28T08:39:22.988Z,51.88
2018-04-28T08:40:22.945Z,52.08
2018-04-28T08:41:22.915Z,51.69
2018-04-28T08:42:22.872Z,52.84
2018-04-28T08:43:22.825Z,52.65
2018-04-28T08:44:22.786Z,51.21
2018-04-28T08:45:22.749Z,50.92
2018-04-28T08:46:22.710Z,51.40
2018-04-28T08:47:22.665Z,51.31
2018-04-28T08:48:22.625Z,51.69
2018-04-28T08:49:22.584Z,50.95
2018-04-28T08:50:22.548Z,50.85
2018-04-28T08:51:22.506Z,50.56
2018-04-28T08:52:22.467Z,50.92
2018-04-28T08:53:22.427Z,50.82
2018-04-28T08:54:22.388Z,51.02
2018-04-28T08:55:22.348Z,51.50
2018-04-28T08:56:22.311Z,51.79
2018-04-28T08:57:22.273Z,51.02
2018-04-28T08:58:22.231Z,51.40
2018-04-28T08:59:22.189Z,51.02
2018-04-28T09:00:22.152Z,51.40
2018-04-28T09:01:22.114Z,51.88
2018-04-28T09:02:22.073Z,51.81
2018-04-28T09:03:22.033Z,51.62
2018-04-28T09:04:21.994Z,52.29
2018-04-28T09:05:21.955Z,51.04
2018-04-28T09:06:21.914Z,50.85
2018-04-28T09:07:21.874Z,50.85
2018-04-28T09:08:21.834Z,50.85
2018-04-28T09:09:21.795Z,50.68
2018-04-28T09:10:21.763Z,51.93
2018-04-28T09:11:21.716Z,51.26
2018-04-28T09:12:21.677Z,50.59
2018-04-28T09:13:21.652Z,51.55
2018-04-28T09:14:21.600Z,50.87
2018-04-28T09:15:21.563Z,50.49
2018-04-28T09:16:21.519Z,50.20
2018-04-28T09:17:21.482Z,50.01
2018-04-28T09:18:21.443Z,49.82
2018-04-28T09:19:21.401Z,49.63
2018-04-28T09:20:21.369Z,50.59
2018-04-28T09:21:21.327Z,50.27
2018-04-28T09:22:21.290Z,51.14
2018-04-28T09:23:21.317Z,50.56
2018-04-28T09:24:21.206Z,51.53
2018-04-28T09:25:21.206Z,50.76
2018-04-28T09:26:21.166Z,50.20
2018-04-28T09:27:21.087Z,50.85
2018-04-28T09:28:21.048Z,51.53
2018-04-28T09:29:21.012Z,51.72
2018-04-28T09:30:20.971Z,51.81
2018-04-28T09:31:20.931Z,51.45
2018-04-28T09:32:20.897Z,50.85
2018-04-28T09:33:20.856Z,51.17
2018-04-28T09:34:20.821Z,51.45
2018-04-28T09:35:20.777Z,51.45
2018-04-28T09:36:20.735Z,50.97
2018-04-28T09:37:20.696Z,50.10
2018-04-28T09:38:20.658Z,50.51
2018-04-28T09:39:20.617Z,49.84
2018-04-28T09:40:20.583Z,49.84
2018-04-28T09:41:20.541Z,50.23
2018-04-28T09:42:20.500Z,50.81
2018-04-28T09:43:20.463Z,51.29
2018-04-28T09:44:20.423Z,49.96
2018-04-28T09:45:20.384Z,49.96
2018-04-28T09:46:20.420Z,48.21
2018-04-28T09:47:20.310Z,47.82
2018-04-28T09:48:20.269Z,48.97
2018-04-28T09:49:20.229Z,48.40
2018-04-28T09:50:20.190Z,48.97
2018-04-28T09:51:20.151Z,49.46
2018-04-28T09:52:20.120Z,48.97
2018-04-28T09:53:20.076Z,48.21
2018-04-28T09:54:20.033Z,48.97
2018-04-28T09:55:19.995Z,49.17
2018-04-28T09:56:19.956Z,49.36
2018-04-28T09:57:19.919Z,49.65
2018-04-28T09:58:19.880Z,49.46
2018-04-28T09:59:19.841Z,49.07
2018-04-28T10:00:19.801Z,49.36
2018-04-28T10:01:19.767Z,49.65
2018-04-28T10:02:19.726Z,49.17
2018-04-28T10:03:19.692Z,49.74
2018-04-28T10:04:19.645Z,48.49
2018-04-28T10:05:19.611Z,49.17
2018-04-28T10:06:19.570Z,50.13
2018-04-28T10:07:19.529Z,49.65
2018-04-28T10:08:19.489Z,49.84
2018-04-28T10:09:19.451Z,50.23
2018-04-28T10:10:19.416Z,49.17
2018-04-28T10:11:19.372Z,49.46
2018-04-28T10:12:19.341Z,49.63
2018-04-28T10:13:19.301Z,49.91
2018-04-28T10:14:19.277Z,49.55
2018-04-28T10:15:19.221Z,49.53
2018-04-28T10:16:19.182Z,49.55
2018-04-28T10:17:19.171Z,49.65
2018-04-28T10:18:19.100Z,49.27
2018-04-28T10:19:19.066Z,48.30
2018-04-28T10:20:19.151Z,48.11
2018-04-28T10:21:18.986Z,48.30
2018-04-28T10:22:18.947Z,49.07
2018-04-28T10:23:18.908Z,50.15
2018-04-28T10:24:18.870Z,49.10
2018-04-28T10:25:18.839Z,48.90
2018-04-28T10:26:18.794Z,49.00
2018-04-28T10:27:18.754Z,48.33
2018-04-28T10:28:18.714Z,47.65
2018-04-28T10:29:18.674Z,47.36
2018-04-28T10:30:18.644Z,47.36
2018-04-28T10:31:18.598Z,47.56
2018-04-28T10:32:18.558Z,47.46
2018-04-28T10:33:18.519Z,47.34
2018-04-28T10:34:18.487Z,47.53
2018-04-28T10:35:18.440Z,47.72
2018-04-28T10:36:18.404Z,48.02
2018-04-28T10:37:18.365Z,47.53
2018-04-28T10:38:18.327Z,47.99
2018-04-28T10:39:18.288Z,47.92
2018-04-28T10:40:18.247Z,47.72
2018-04-28T10:41:18.207Z,47.99
2018-04-28T10:42:18.168Z,47.63
2018-04-28T10:43:18.134Z,47.72
2018-04-28T10:44:18.093Z,48.02
2018-04-28T10:45:18.051Z,48.33
2018-04-28T10:46:18.015Z,47.63
2018-04-28T10:47:17.978Z,46.67
2018-04-28T10:48:17.938Z,46.88
2018-04-28T10:49:17.898Z,46.59
2018-04-28T10:50:17.862Z,46.69
2018-04-28T10:51:17.819Z,46.98
2018-04-28T10:52:17.782Z,47.56
2018-04-28T10:53:17.742Z,46.50
2018-04-28T10:54:17.708Z,47.56
2018-04-28T10:55:17.665Z,46.42
2018-04-28T10:56:17.626Z,45.94
2018-04-28T10:57:17.588Z,45.65
2018-04-28T10:58:17.549Z,45.46
2018-04-28T10:59:17.514Z,47.58
2018-04-28T11:00:17.473Z,46.62
2018-04-28T11:01:17.434Z,45.17
2018-04-28T11:02:17.398Z,44.89
2018-04-28T11:03:17.364Z,45.17
2018-04-28T11:04:17.319Z,45.77
2018-04-28T11:05:17.283Z,44.52
2018-04-28T11:06:17.317Z,45.39
2018-04-28T11:07:17.203Z,46.25
2018-04-28T11:08:17.165Z,45.87
2018-04-28T11:09:17.131Z,46.37
2018-04-28T11:10:17.091Z,45.21
2018-04-28T11:11:17.049Z,44.76
2018-04-28T11:12:17.019Z,44.46
2018-04-28T11:13:17.056Z,43.60
2018-04-28T11:14:16.939Z,43.79
2018-04-28T11:15:16.903Z,43.31
2018-04-28T11:16:16.863Z,43.41
2018-04-28T11:17:16.823Z,43.43
2018-04-28T11:18:16.785Z,42.25
2018-04-28T11:19:16.746Z,42.05
2018-04-28T11:20:16.710Z,42.56
2018-04-28T11:21:16.671Z,42.75
2018-04-28T11:22:16.639Z,43.54
2018-04-28T11:23:16.598Z,42.00
2018-04-28T11:24:16.562Z,41.03
2018-04-28T11:25:16.530Z,40.94
2018-04-28T11:26:16.487Z,40.84
2018-04-28T11:27:16.451Z,40.75
2018-04-28T11:28:16.414Z,40.17
2018-04-28T11:29:16.373Z,40.07
2018-04-28T11:30:16.341Z,41.61
2018-04-28T11:31:16.302Z,41.94
2018-04-28T11:32:16.266Z,40.86
2018-04-28T11:33:16.228Z,40.78
2018-04-28T11:34:16.198Z,40.20
2018-04-28T11:35:16.154Z,39.90
2018-04-28T11:36:16.117Z,40.30
2018-04-28T11:37:16.080Z,41.48
2018-04-28T11:38:16.124Z,40.42
2018-04-28T11:39:16.009Z,39.47
2018-04-28T11:40:15.971Z,39.97
2018-04-28T11:41:15.939Z,37.57
2018-04-28T11:42:15.904Z,37.85
2018-04-28T11:43:15.864Z,35.15
2018-04-28T11:44:15.827Z,35.44
2018-04-28T11:45:15.798Z,35.56
2018-04-28T11:46:15.765Z,33.62
2018-04-28T11:47:15.730Z,33.81
2018-04-28T11:48:15.684Z,34.31
2018-04-28T11:49:15.700Z,32.96
2018-04-28T11:50:15.618Z,33.44
2018-04-28T11:51:15.580Z,33.72
2018-04-28T11:52:15.547Z,34.99
2018-04-28T11:53:15.562Z,33.92
2018-04-28T11:54:15.475Z,33.73
2018-04-28T11:55:15.440Z,33.46
2018-04-28T11:56:15.412Z,32.28
2018-04-28T11:57:15.374Z,32.28
2018-04-28T11:58:15.341Z,32.68
2018-04-28T11:59:15.322Z,31.91
2018-04-28T12:00:15.272Z,33.65
2018-04-28T12:01:15.243Z,33.36
2018-04-28T12:02:15.201Z,32.68
2018-04-28T12:03:15.167Z,31.41
2018-04-28T12:04:15.132Z,31.50
2018-04-28T12:05:15.182Z,31.89
2018-04-28T12:06:15.066Z,31.60
2018-04-28T12:07:15.031Z,32.09
2018-04-28T12:08:15.005Z,31.78
2018-04-28T12:09:14.963Z,31.86
2018-04-28T12:10:14.931Z,30.89
2018-04-28T12:11:14.893Z,30.04
2018-04-28T12:12:14.861Z,30.23
2018-04-28T12:13:14.828Z,30.15
2018-04-28T12:14:14.797Z,29.38
2018-04-28T12:15:14.756Z,29.68
2018-04-28T12:16:14.722Z,30.45
2018-04-28T12:17:14.713Z,30.24
2018-04-28T12:18:14.655Z,30.92
2018-04-28T12:19:14.625Z,31.60
2018-04-28T12:20:14.590Z,30.82
2018-04-28T12:21:14.552Z,30.63
2018-04-28T12:22:14.517Z,30.15
2018-04-28T12:23:14.485Z,30.44
2018-04-28T12:24:14.451Z,30.24
2018-04-28T12:25:14.417Z,30.34
2018-04-28T12:26:14.389Z,30.13
2018-04-28T12:27:14.358Z,30.13
2018-04-28T12:28:14.312Z,29.64
2018-04-28T12:29:14.280Z,29.64
2018-04-28T12:30:14.247Z,29.84
2018-04-28T12:31:14.212Z,29.63
2018-04-28T12:32:14.174Z,30.21
2018-04-28T12:33:14.205Z,31.67
2018-04-28T12:34:14.107Z,31.56
2018-04-28T12:35:14.069Z,31.26
2018-04-28T12:36:14.035Z,30.51
2018-04-28T12:37:14.001Z,30.20
2018-04-28T12:38:13.965Z,30.10
2018-04-28T12:39:13.931Z,30.68
2018-04-28T12:40:13.897Z,30.38
2018-04-28T12:41:13.863Z,30.18
2018-04-28T12:42:13.829Z,30.08
2018-04-28T12:43:13.795Z,30.57
2018-04-28T12:44:13.755Z,30.66
2018-04-28T12:45:13.721Z,30.38
2018-04-28T12:46:13.691Z,30.38
2018-04-28T12:47:13.648Z,31.25
2018-04-28T12:48:13.612Z,31.05
2018-04-28T12:49:13.582Z,31.63
2018-04-28T12:50:13.541Z,31.63
2018-04-28T12:51:13.505Z,30.28
2018-04-28T12:52:13.475Z,30.10
2018-04-28T12:53:13.436Z,31.36